Flight Track Log - Related Links

Times and Time Zones

All times are in EDT time to prevent confusion due to time zone crossing. See the SKW4542 flight status page for this flight to view local times or setup timezone preferences in your user account.

Time Position Orientation Groundspeed Altitude Reporting Facility
EDT Latitude Longitude Course Direction KTS MPH feet Rate Location/Type
Tue 08:31:58 PM 43.4028 -112.1733 214° Southwest 234 269 9,200  Level Salt Lake Center
Tue 08:32:00 PM 43.2787 -112.0624 213° Southwest  Level Estimated
Tue 08:33:00 PM 43.2601 -112.1670 256° West  Level FlightAware Approximate
Tue 08:33:00 PM 43.3378 -112.2336 214° Southwest 275 316 11,700  Level Salt Lake Center
Tue 08:34:00 PM 43.1819 -112.1608 213° Southwest  Level Estimated
Tue 08:34:02 PM 43.2517 -112.3114 213° Southwest 312 359 14,500  Level Salt Lake Center
Tue 08:35:00 PM 43.1521 -112.2602 248° West  Level FlightAware Approximate
Tue 08:35:03 PM 43.1747 -112.3800 213° Southwest 331 381 17,000  Level Salt Lake Center
Tue 08:36:00 PM 43.0740 -112.2505 214° Southwest  Level Estimated
Tue 08:36:05 PM 43.0825 -112.4569 211° Southwest 345 397 19,200  Level Salt Lake Center
Tue 08:37:07 PM 43.0025 -112.5286 213° Southwest 354 407 20,500 1,403 Climbing Salt Lake Center
Tue 08:38:09 PM 42.9181 -112.6031 213° Southwest 370 426 22,100 1,220 Climbing Salt Lake Center
Tue 08:39:10 PM 42.7981 -112.6256 188° South 413 475 23,000 439 Climbing Salt Lake Center
Tue 08:40:12 PM 42.6844 -112.5958 169° South 437 503 23,000  Level Salt Lake Center
Tue 08:41:14 PM 42.5636 -112.5586 167° South 446 513 23,000  Level Salt Lake Center
Tue 08:42:16 PM 42.4422 -112.5242 168° South 446 513 23,000  Level Salt Lake Center
Tue 08:43:17 PM 42.2972 -112.4794 167° South 445 512 23,000  Level Salt Lake Center
Tue 08:44:19 PM 42.1764 -112.4486 169° South 444 511 23,000 -194 Level Salt Lake Center
Tue 08:45:21 PM 42.0589 -112.4586 184° South 423 487 22,600 -829 Descending Salt Lake Center
Tue 08:46:22 PM 41.9475 -112.4642 182° South 404 465 21,300 -1,220 Descending Salt Lake Center
Tue 08:47:24 PM 41.8378 -112.4711 183° South 397 457 20,100 -1,225 Descending Salt Lake Center
Tue 08:48:44 PM 41.6872 -112.4736 181° South 380 437 18,400 -1,073 Descending Salt Lake Center
Tue 08:49:27 PM 41.6308 -112.4836 188° South 369 425 17,900 -911 Descending Salt Lake Center
Tue 08:50:03 PM 41.5558 -112.4836 180° South 367 422 17,200 -1,065 Descending Salt Lake Center
Tue 08:50:29 PM 41.5078 -112.4689 167° South 390 449 16,800 -1,082 Descending Salt Lake Center
Tue 08:51:04 PM 41.4550 -112.4172 144° Southeast 399 459 16,100 -1,279 Descending Salt Lake Center
Tue 08:51:30 PM 41.4128 -112.3939 157° South 401 461 15,500 -1,343 Descending Salt Lake Center
Tue 08:52:11 PM 41.3486 -112.3447 150° Southeast 404 465 14,600 -1,355 Descending Salt Lake Center
Tue 08:52:32 PM 41.3139 -112.3244 156° South 403 464 14,100 -1,475 Descending Salt Lake Center
Tue 08:53:12 PM 41.2442 -112.2714 150° Southeast 396 456 13,100 -1,082 Descending Salt Lake Center
Tue 08:53:33 PM 41.2192 -112.2569 157° South 389 448 13,000 -109 Descending Salt Lake Center
Tue 08:54:07 PM 41.1692 -112.2169 149° Southeast 377 434 13,000  Level Salt Lake Center
Tue 08:54:35 PM 41.1311 -112.1894 151° Southeast 371 427 13,000 -197 Level Salt Lake Center
Tue 08:55:08 PM 41.0719 -112.1475 152° Southeast 368 423 12,800 -581 Descending Salt Lake Center
Tue 08:55:37 PM 41.0394 -112.1389 169° South 368 423 12,400 -800 Descending Salt Lake Center
Tue 08:56:08 PM 40.9792 -112.1250 170° South 325 374 12,000 -393 Descending Salt Lake Center
Tue 08:56:38 PM 40.9406 -112.1175 172° South 289 333 12,000  Level Salt Lake Center
Tue 08:57:09 PM 40.9081 -112.1122 173° South 256 295 12,000  Level Salt Lake Center
Tue 08:57:40 PM 40.8750 -112.1050 171° South 244 281 12,000 -295 Level Salt Lake Center
Tue 08:58:10 PM 40.8461 -112.1047 180° South 226 260 11,700 -787 Descending Salt Lake Center
Tue 08:58:41 PM 40.8142 -112.0989 172° South 222 255 11,200 -689 Descending Salt Lake Center
Tue 08:59:11 PM 40.7800 -112.0961 176° South 221 254 11,000 -194 Descending Salt Lake Center
Tue 08:59:43 PM 40.7544 -112.0914 172° South 217 250 11,000  Level Salt Lake Center
Tue 09:00:12 PM 40.7208 -112.0906 179° South 214 246 11,000  Level Salt Lake Center
Tue 09:00:44 PM 40.6956 -112.0850 171° South 213 245 11,000 -393 Level Salt Lake Center
Tue 09:01:13 PM 40.6594 -112.0858 181° South 214 246 10,600 -871 Descending Salt Lake Center
Tue 09:01:46 PM 40.6367 -112.0783 166° South 213 245 10,100 -1,279 Descending Salt Lake Center
Tue 09:02:14 PM 40.6028 -112.0711 171° South 219 252 9,300 -1,574 Descending Salt Lake Center
Tue 09:02:47 PM 40.5942 -112.0375 109° East 225 259 8,500 -1,377 Descending Salt Lake Center
Tue 09:03:15 PM 40.6106 -112.0006 60° Northeast 209 241 7,900 -1,286 Descending Salt Lake Center

Login

Don't have an account? Register now (free) for customized features, flight alerts, and more!